KILG/ILG METAR and TAF weather

Enter ICAO airport designator
Station Type Date Time Source
KILG METAR 2020/04/06 11:51 UTC NOAA

KILG 061151Z AUTO 34009KT 10SM SCT045 11/03 A3008 RMK AO2 SLP184 T01110033 10128 20089 53025 $


Station Type Date Time Source
KILG Decoded METAR 2020/04/06 11:51 UTC NOAA

WILMINGTON NEW CASTLE CO, DE, United States (KILG) 39-40N 075-36W 28M
Apr 06, 2020 - 07:51 AM EDT / 2020.04.06 1151 UTC
Wind: from the NNW (340 degrees) at 10 MPH (9 KT):0
Visibility: 10 mile(s):0
Sky conditions: partly cloudy
Temperature: 52.0 F (11.1 C)
Dew Point: 37.9 F (3.3 C)
Relative Humidity: 58%
Pressure (altimeter): 30.08 in. Hg (1018 hPa)
Pressure tendency: 0.07 inches (2.5 hPa) higher than three hours ago
ob: KILG 061151Z AUTO 34009KT 10SM SCT045 11/03 A3008 RMK AO2 SLP184 T01110033 10128 20089 53025
cycle: 12

Station Type Date Time Source
KILG TAF 2020/04/06 12:45 UTC NOAA

TAF KILG 061141Z 0612/0712 35009KT P6SM FEW250
FM070000 VRB03KT P6SM SCT200 BKN250
FM070900 VRB04KT P6SM SCT100 BKN150

Example: see airport list